createdAt,value
2019-04-22T00:01:50.344Z,12.76
2019-04-22T00:04:33.693Z,12.81
2019-04-22T00:07:09.805Z,12.81
2019-04-22T00:09:48.550Z,12.88
2019-04-22T00:12:22.224Z,12.77
2019-04-22T00:14:40.647Z,12.79
2019-04-22T00:17:23.314Z,12.84
2019-04-22T00:19:55.505Z,12.83
2019-04-22T00:24:46.821Z,12.74
2019-04-22T00:27:20.335Z,12.78
2019-04-22T00:30:00.582Z,12.86
2019-04-22T00:32:19.407Z,12.80
2019-04-22T00:34:53.809Z,12.80
2019-04-22T00:37:25.221Z,12.78
2019-04-22T00:39:51.357Z,12.63
2019-04-22T00:42:33.307Z,12.67
2019-04-22T00:45:00.732Z,12.71
2019-04-22T00:47:41.105Z,12.68
2019-04-22T00:50:15.887Z,12.67
2019-04-22T00:52:34.298Z,12.71
2019-04-22T00:55:06.076Z,12.69
2019-04-22T00:57:35.539Z,12.53
2019-04-22T01:00:07.230Z,12.55
2019-04-22T01:02:34.758Z,12.53
2019-04-22T01:05:07.940Z,12.59
2019-04-22T01:07:30.469Z,12.45
2019-04-22T01:10:07.601Z,12.43
2019-04-22T01:12:31.878Z,12.40
2019-04-22T01:15:07.079Z,12.34
2019-04-22T01:17:39.723Z,12.30
2019-04-22T01:20:17.553Z,12.28
2019-04-22T01:22:34.919Z,12.28
2019-04-22T01:25:08.026Z,12.23
2019-04-22T01:27:31.063Z,12.34
2019-04-22T01:30:00.856Z,12.37
2019-04-22T01:32:26.088Z,12.39
2019-04-22T01:35:03.473Z,12.32
2019-04-22T01:37:34.610Z,12.34
2019-04-22T01:40:19.883Z,12.38
2019-04-22T01:42:54.421Z,12.40
2019-04-22T01:45:22.570Z,12.36
2019-04-22T01:47:43.725Z,12.39
2019-04-22T01:50:21.403Z,12.38
2019-04-22T01:52:52.197Z,12.36
2019-04-22T01:57:47.698Z,12.32
2019-04-22T02:00:11.275Z,12.29
2019-04-22T02:02:54.945Z,12.25
2019-04-22T02:07:49.288Z,12.16
2019-04-22T02:10:30.702Z,12.11
2019-04-22T02:12:53.221Z,12.06
2019-04-22T02:15:23.350Z,11.99
2019-04-22T02:18:01.283Z,11.95
2019-04-22T02:20:29.621Z,11.94
2019-04-22T02:23:40.223Z,11.94
2019-04-22T02:25:50.995Z,11.87
2019-04-22T02:28:26.043Z,11.85
2019-04-22T02:31:16.033Z,11.82
2019-04-22T02:33:51.326Z,11.72
2019-04-22T02:38:46.638Z,11.66
2019-04-22T02:41:15.702Z,11.59
2019-04-22T02:43:49.287Z,11.51
2019-04-22T02:48:50.310Z,11.44
2019-04-22T02:51:04.305Z,11.40
2019-04-22T02:54:11.940Z,11.39
2019-04-22T02:56:13.377Z,11.36
2019-04-22T02:58:46.999Z,11.36
2019-04-22T03:06:16.534Z,11.23
2019-04-22T03:08:41.478Z,11.23
2019-04-22T03:14:37.596Z,11.19
2019-04-22T03:17:13.503Z,11.14
2019-04-22T03:19:50.505Z,11.09
2019-04-22T03:22:12.481Z,11.07
2019-04-22T03:27:07.459Z,10.98
2019-04-22T03:35:31.665Z,10.87
2019-04-22T03:40:48.202Z,10.79
2019-04-22T03:43:06.826Z,10.75
2019-04-22T03:45:28.268Z,10.75
2019-04-22T03:50:38.798Z,10.66
2019-04-22T03:55:29.013Z,10.63
2019-04-22T04:00:47.732Z,10.61
2019-04-22T04:05:49.967Z,10.56
2019-04-22T04:08:14.676Z,10.54
2019-04-22T04:18:30.671Z,10.50
2019-04-22T04:23:37.925Z,10.46
2019-04-22T04:25:46.799Z,10.46
2019-04-22T04:30:57.476Z,10.40
2019-04-22T04:38:21.152Z,10.36
2019-04-22T04:43:30.016Z,10.37
2019-04-22T04:46:02.884Z,10.35
2019-04-22T04:48:32.312Z,10.36
2019-04-22T04:51:11.150Z,10.40
2019-04-22T04:53:27.156Z,10.42
2019-04-22T04:55:59.957Z,10.42
2019-04-22T04:58:36.867Z,10.44
2019-04-22T05:03:39.949Z,10.54
2019-04-22T05:06:01.359Z,10.55
2019-04-22T05:08:54.371Z,10.62
2019-04-22T05:12:03.699Z,10.62
2019-04-22T05:14:17.728Z,10.64
2019-04-22T05:19:20.234Z,10.78
2019-04-22T05:21:53.050Z,10.83
2019-04-22T05:24:34.452Z,10.82
2019-04-22T05:26:57.065Z,10.85
2019-04-22T05:29:35.104Z,10.91
2019-04-22T05:34:22.798Z,10.97
2019-04-22T05:36:58.891Z,11.03
2019-04-22T05:39:25.003Z,11.02
2019-04-22T05:41:56.070Z,11.11
2019-04-22T05:44:29.399Z,11.18
2019-04-22T05:46:53.212Z,11.26
2019-04-22T05:51:54.639Z,11.35
2019-04-22T05:54:28.530Z,11.42
2019-04-22T05:57:03.880Z,11.49
2019-04-22T05:59:44.551Z,11.52
2019-04-22T06:04:48.036Z,11.63
2019-04-22T06:07:13.701Z,11.70
2019-04-22T06:09:43.614Z,11.78
2019-04-22T06:12:12.312Z,11.88
2019-04-22T06:14:47.945Z,11.92
2019-04-22T06:17:24.867Z,11.99
2019-04-22T06:19:50.521Z,12.10
2019-04-22T06:22:34.366Z,12.20
2019-04-22T06:24:58.975Z,12.30
2019-04-22T06:29:46.169Z,12.42
2019-04-22T06:35:00.420Z,12.63
2019-04-22T06:37:27.980Z,12.79
2019-04-22T06:39:51.015Z,12.86
2019-04-22T06:42:28.561Z,12.89
2019-04-22T06:45:02.765Z,13.09
2019-04-22T06:47:40.084Z,13.31
2019-04-22T06:49:57.029Z,13.40
2019-04-22T06:52:22.614Z,13.82
2019-04-22T06:54:59.406Z,14.26
2019-04-22T06:57:25.565Z,14.83
2019-04-22T07:00:00.465Z,15.37
2019-04-22T07:02:32.159Z,16.24
2019-04-22T07:05:02.138Z,16.92
2019-04-22T07:07:26.769Z,17.71
2019-04-22T07:10:06.625Z,18.14
2019-04-22T07:12:29.145Z,18.80
2019-04-22T07:15:08.518Z,18.94
2019-04-22T07:17:38.075Z,19.46
2019-04-22T07:20:04.307Z,20.44
2019-04-22T07:22:33.787Z,20.45
2019-04-22T07:25:03.134Z,21.13
2019-04-22T07:27:34.210Z,20.85
2019-04-22T07:30:09.339Z,21.21
2019-04-22T07:33:00.663Z,21.41
2019-04-22T07:35:23.934Z,21.75
2019-04-22T07:38:05.771Z,22.42
2019-04-22T07:40:17.160Z,22.90
2019-04-22T07:42:48.170Z,23.41
2019-04-22T07:45:19.797Z,23.75
2019-04-22T07:47:52.097Z,24.12
2019-04-22T07:52:57.090Z,24.79
2019-04-22T07:55:17.837Z,25.01
2019-04-22T07:57:58.947Z,26.05
2019-04-22T08:00:29.217Z,25.69
2019-04-22T08:02:59.156Z,25.70
2019-04-22T08:05:39.316Z,25.22
2019-04-22T08:08:09.553Z,25.33
2019-04-22T08:13:07.365Z,25.16
2019-04-22T08:15:42.041Z,25.28
2019-04-22T08:18:12.796Z,25.57
2019-04-22T08:20:41.539Z,26.44
2019-04-22T08:23:09.625Z,26.68
2019-04-22T08:25:43.790Z,26.22
2019-04-22T08:30:49.175Z,26.72
2019-04-22T08:33:22.059Z,27.06
2019-04-22T08:38:25.369Z,28.23
2019-04-22T08:41:31.867Z,28.62
2019-04-22T08:43:52.385Z,28.80
2019-04-22T08:46:25.594Z,29.04
2019-04-22T08:48:52.902Z,29.18
2019-04-22T08:51:25.311Z,29.59
2019-04-22T08:53:59.886Z,30.01
2019-04-22T08:56:29.845Z,29.93
2019-04-22T08:58:57.311Z,30.29
2019-04-22T09:01:44.951Z,30.66
2019-04-22T09:06:58.128Z,31.80
2019-04-22T09:09:09.755Z,31.16
2019-04-22T09:11:41.454Z,30.20
2019-04-22T09:14:14.014Z,30.41
2019-04-22T09:16:42.804Z,30.25
2019-04-22T09:21:43.441Z,29.36
2019-04-22T09:24:10.516Z,30.52
2019-04-22T09:26:43.616Z,30.04
2019-04-22T09:29:23.583Z,30.91
2019-04-22T09:31:49.751Z,31.44
2019-04-22T09:34:18.435Z,31.47
2019-04-22T09:36:55.454Z,31.15
2019-04-22T09:39:28.286Z,31.54
2019-04-22T09:44:28.194Z,29.93
2019-04-22T09:46:52.430Z,31.08
2019-04-22T09:49:26.662Z,30.93
2019-04-22T09:51:58.649Z,31.69
2019-04-22T09:54:29.705Z,31.88
2019-04-22T09:56:56.444Z,31.10
2019-04-22T09:59:32.967Z,29.89
2019-04-22T10:02:18.357Z,31.48
2019-04-22T10:04:34.655Z,32.71
2019-04-22T10:07:01.050Z,31.78
2019-04-22T10:09:49.538Z,30.71
2019-04-22T10:12:02.138Z,31.10
2019-04-22T10:14:38.481Z,33.04
2019-04-22T10:17:06.708Z,32.20
2019-04-22T10:19:41.173Z,31.99
2019-04-22T10:24:44.994Z,30.04
2019-04-22T10:27:19.042Z,30.59
2019-04-22T10:29:54.171Z,30.10
2019-04-22T10:32:46.298Z,29.83
2019-04-22T10:34:44.007Z,28.71
2019-04-22T10:37:11.276Z,28.01
2019-04-22T10:39:46.111Z,27.22
2019-04-22T10:42:11.382Z,25.99
2019-04-22T10:44:41.586Z,26.29
2019-04-22T10:47:11.893Z,26.24
2019-04-22T10:49:40.631Z,25.99
2019-04-22T10:52:10.926Z,25.46
2019-04-22T10:54:41.210Z,25.13
2019-04-22T10:57:10.868Z,24.96
2019-04-22T10:59:40.725Z,24.57
2019-04-22T11:02:09.793Z,24.61
2019-04-22T11:04:38.701Z,24.32
2019-04-22T11:07:10.825Z,23.88
2019-04-22T11:09:50.486Z,23.80
2019-04-22T11:12:13.671Z,23.74
2019-04-22T11:14:43.107Z,23.66
2019-04-22T11:17:09.382Z,23.83
2019-04-22T11:19:39.343Z,24.04
2019-04-22T11:22:16.889Z,24.17
2019-04-22T11:24:38.958Z,24.23
2019-04-22T11:27:08.355Z,23.81
2019-04-22T11:29:37.472Z,23.07
2019-04-22T11:32:06.542Z,23.42
2019-04-22T11:34:37.485Z,23.70
2019-04-22T11:37:06.353Z,23.64
2019-04-22T11:39:36.706Z,23.80
2019-04-22T11:42:05.672Z,23.47
2019-04-22T11:44:35.292Z,23.17
2019-04-22T11:47:05.351Z,23.15
2019-04-22T11:49:34.316Z,23.57
2019-04-22T11:52:05.496Z,23.48
2019-04-22T11:54:34.960Z,23.31
2019-04-22T11:57:05.327Z,23.40
2019-04-22T11:59:34.365Z,23.80
2019-04-22T12:02:04.632Z,24.10
2019-04-22T12:04:33.961Z,23.85
2019-04-22T12:07:04.260Z,24.31
2019-04-22T12:09:33.531Z,24.65
2019-04-22T12:12:03.494Z,25.35
2019-04-22T12:14:32.251Z,24.81
2019-04-22T12:17:03.600Z,25.17
2019-04-22T12:19:33.442Z,23.99
2019-04-22T12:22:02.941Z,24.41
2019-04-22T12:24:34.232Z,24.78
2019-04-22T12:27:04.324Z,25.65
2019-04-22T12:29:33.224Z,24.81
2019-04-22T12:32:03.224Z,24.86
2019-04-22T12:34:33.256Z,24.71
2019-04-22T12:37:02.660Z,25.43
2019-04-22T12:39:31.690Z,25.48
2019-04-22T12:42:00.444Z,24.65
2019-04-22T12:44:30.487Z,24.79
2019-04-22T12:47:01.738Z,25.09
2019-04-22T12:49:29.950Z,26.16
2019-04-22T12:51:59.012Z,25.20
2019-04-22T12:54:29.064Z,24.97
2019-04-22T12:56:59.791Z,25.10
2019-04-22T12:59:29.792Z,25.03
2019-04-22T13:01:58.691Z,25.82
2019-04-22T13:04:27.981Z,24.84
2019-04-22T13:06:57.679Z,24.85
2019-04-22T13:09:27.489Z,25.13
2019-04-22T13:11:57.157Z,25.87
2019-04-22T13:14:27.228Z,25.58
2019-04-22T13:16:56.004Z,24.92
2019-04-22T13:19:26.521Z,24.64
2019-04-22T13:21:56.558Z,24.55
2019-04-22T13:24:25.955Z,24.59
2019-04-22T13:26:55.101Z,24.17
2019-04-22T13:29:27.585Z,24.10
2019-04-22T13:31:56.387Z,24.62
2019-04-22T13:34:31.629Z,24.46
2019-04-22T13:36:56.736Z,24.35
2019-04-22T13:39:27.147Z,24.69
2019-04-22T13:42:01.644Z,24.42
2019-04-22T13:44:27.988Z,24.27
2019-04-22T13:47:14.543Z,24.21
2019-04-22T13:49:59.292Z,24.21
2019-04-22T13:55:05.724Z,24.44
2019-04-22T13:57:19.985Z,24.65
2019-04-22T13:59:38.108Z,24.31
2019-04-22T14:02:01.889Z,23.97
2019-04-22T14:04:32.795Z,23.66
2019-04-22T14:07:02.798Z,24.00
2019-04-22T14:09:33.585Z,23.91
2019-04-22T14:12:05.709Z,23.82
2019-04-22T14:14:33.719Z,23.96
2019-04-22T14:17:03.003Z,23.61
2019-04-22T14:19:32.247Z,23.38
2019-04-22T14:22:01.959Z,23.15
2019-04-22T14:24:30.748Z,22.82
2019-04-22T14:27:15.170Z,22.90
2019-04-22T14:29:33.569Z,22.70
2019-04-22T14:34:38.399Z,22.74
2019-04-22T14:37:03.556Z,22.57
2019-04-22T14:39:33.861Z,22.57
2019-04-22T14:42:21.692Z,22.53
2019-04-22T14:44:12.632Z,22.96
2019-04-22T14:47:25.652Z,22.59
2019-04-22T14:49:57.442Z,22.70
2019-04-22T14:52:27.797Z,22.73
2019-04-22T14:54:49.258Z,22.56
2019-04-22T14:57:07.210Z,22.69
2019-04-22T14:59:37.486Z,22.71
2019-04-22T15:02:07.591Z,22.77
2019-04-22T15:04:37.301Z,22.27
2019-04-22T15:07:07.349Z,22.23
2019-04-22T15:09:37.823Z,22.39
2019-04-22T15:12:16.417Z,22.43
2019-04-22T15:14:37.660Z,22.80
2019-04-22T15:17:24.959Z,22.25
2019-04-22T15:19:56.072Z,22.14
2019-04-22T15:22:26.297Z,21.82
2019-04-22T15:24:56.573Z,21.67
2019-04-22T15:27:29.605Z,21.67
2019-04-22T15:29:59.182Z,21.50
2019-04-22T15:32:29.357Z,21.50
2019-04-22T15:34:59.600Z,21.38
2019-04-22T15:37:31.094Z,21.40
2019-04-22T15:40:00.561Z,21.39
2019-04-22T15:42:35.594Z,21.53
2019-04-22T15:45:00.017Z,21.26
2019-04-22T15:47:29.283Z,21.18
2019-04-22T15:50:00.369Z,21.00
2019-04-22T15:52:36.280Z,21.03
2019-04-22T15:55:00.658Z,21.08
2019-04-22T15:57:30.748Z,20.98
2019-04-22T16:00:14.408Z,20.97
2019-04-22T16:02:31.763Z,20.93
2019-04-22T16:05:00.557Z,20.90
2019-04-22T16:07:31.866Z,20.74
2019-04-22T16:10:01.799Z,20.73
2019-04-22T16:12:41.448Z,20.76
2019-04-22T16:15:09.602Z,20.65
2019-04-22T16:17:40.450Z,20.54
2019-04-22T16:20:10.928Z,20.59
2019-04-22T16:22:57.347Z,20.29
2019-04-22T16:25:38.774Z,20.29
2019-04-22T16:28:08.876Z,20.16
2019-04-22T16:30:39.432Z,20.07
2019-04-22T16:33:09.838Z,20.04
2019-04-22T16:35:40.776Z,20.08
2019-04-22T16:38:12.843Z,20.09
2019-04-22T16:40:42.875Z,20.05
2019-04-22T16:43:13.513Z,19.84
2019-04-22T16:45:47.521Z,19.85
2019-04-22T16:48:17.474Z,19.84
2019-04-22T16:50:48.665Z,19.59
2019-04-22T16:53:16.997Z,19.50
2019-04-22T16:55:46.638Z,19.48
2019-04-22T16:58:16.657Z,19.47
2019-04-22T17:00:49.684Z,19.45
2019-04-22T17:03:36.592Z,19.36
2019-04-22T17:06:19.506Z,19.47
2019-04-22T17:08:48.728Z,19.47
2019-04-22T17:11:17.962Z,19.28
2019-04-22T17:13:48.132Z,19.20
2019-04-22T17:16:18.042Z,19.18
2019-04-22T17:18:47.128Z,19.09
2019-04-22T17:21:17.404Z,19.00
2019-04-22T17:23:47.550Z,18.97
2019-04-22T17:26:16.748Z,18.88
2019-04-22T17:28:47.211Z,18.78
2019-04-22T17:31:18.602Z,18.69
2019-04-22T17:33:46.791Z,18.63
2019-04-22T17:36:18.337Z,18.71
2019-04-22T17:38:55.082Z,18.55
2019-04-22T17:41:51.184Z,18.49
2019-04-22T17:44:41.397Z,18.41
2019-04-22T17:46:58.529Z,18.38
2019-04-22T17:49:50.279Z,18.33
2019-04-22T17:52:23.175Z,18.27
2019-04-22T17:54:50.275Z,18.18
2019-04-22T17:57:22.406Z,18.12
2019-04-22T17:59:51.811Z,18.06
2019-04-22T18:02:22.665Z,18.00
2019-04-22T18:04:46.001Z,17.96
2019-04-22T18:07:29.603Z,17.90
2019-04-22T18:12:33.528Z,17.92
2019-04-22T18:15:08.898Z,17.88
2019-04-22T18:17:29.109Z,17.88
2019-04-22T18:19:54.558Z,17.77
2019-04-22T18:22:21.780Z,17.70
2019-04-22T18:24:55.754Z,17.64
2019-04-22T18:27:43.007Z,17.59
2019-04-22T18:29:57.174Z,17.54
2019-04-22T18:32:23.066Z,17.47
2019-04-22T18:34:53.051Z,17.41
2019-04-22T18:37:25.204Z,17.35
2019-04-22T18:40:02.228Z,17.29
2019-04-22T18:42:26.803Z,17.25
2019-04-22T18:45:21.724Z,17.13
2019-04-22T18:47:32.323Z,17.10
2019-04-22T18:50:03.027Z,17.04
2019-04-22T18:52:48.764Z,16.95
2019-04-22T18:55:30.980Z,16.90
2019-04-22T18:58:02.763Z,16.84
2019-04-22T19:00:23.440Z,16.77
2019-04-22T19:02:59.038Z,16.70
2019-04-22T19:05:36.895Z,16.60
2019-04-22T19:08:23.110Z,16.59
2019-04-22T19:15:53.842Z,16.38
2019-04-22T19:18:25.655Z,16.30
2019-04-22T19:20:51.330Z,16.23
2019-04-22T19:23:23.542Z,16.17
2019-04-22T19:25:47.218Z,16.12
2019-04-22T19:28:31.232Z,16.11
2019-04-22T19:31:02.642Z,15.98
2019-04-22T19:33:28.775Z,15.98
2019-04-22T19:35:59.921Z,15.93
2019-04-22T19:38:16.528Z,15.83
2019-04-22T19:41:07.043Z,15.75
2019-04-22T19:43:33.216Z,15.70
2019-04-22T19:45:58.933Z,15.72
2019-04-22T19:48:39.674Z,15.86
2019-04-22T19:51:11.107Z,15.78
2019-04-22T19:53:35.658Z,15.86
2019-04-22T19:55:59.850Z,15.58
2019-04-22T19:58:34.903Z,15.51
2019-04-22T20:01:09.140Z,15.58
2019-04-22T20:03:58.092Z,15.41
2019-04-22T20:06:33.663Z,15.40
2019-04-22T20:09:05.787Z,15.42
2019-04-22T20:11:37.610Z,15.36
2019-04-22T20:14:06.351Z,15.23
2019-04-22T20:16:32.456Z,15.27
2019-04-22T20:19:15.561Z,15.12
2019-04-22T20:21:40.318Z,15.06
2019-04-22T20:23:59.192Z,14.98
2019-04-22T20:26:45.555Z,15.09
2019-04-22T20:29:13.099Z,15.00
2019-04-22T20:31:48.585Z,14.88
2019-04-22T20:34:21.517Z,14.83
2019-04-22T20:36:58.054Z,14.78
2019-04-22T20:39:15.058Z,14.73
2019-04-22T20:41:41.105Z,14.77
2019-04-22T20:44:19.047Z,14.69
2019-04-22T20:46:44.769Z,14.65
2019-04-22T20:49:25.686Z,14.60
2019-04-22T20:52:00.284Z,14.59
2019-04-22T20:54:23.244Z,14.58
2019-04-22T20:56:51.832Z,14.59
2019-04-22T20:59:23.750Z,14.49
2019-04-22T21:01:56.682Z,14.46
2019-04-22T21:04:19.638Z,14.42
2019-04-22T21:06:52.790Z,14.36
2019-04-22T21:09:27.378Z,14.34
2019-04-22T21:11:57.806Z,14.29
2019-04-22T21:14:24.492Z,14.25
2019-04-22T21:17:10.173Z,14.16
2019-04-22T21:19:40.371Z,14.12
2019-04-22T21:22:10.883Z,14.09
2019-04-22T21:24:34.474Z,14.17
2019-04-22T21:27:17.010Z,14.09
2019-04-22T21:29:36.330Z,14.06
2019-04-22T21:32:13.615Z,14.02
2019-04-22T21:34:50.978Z,13.95
2019-04-22T21:37:22.203Z,13.91
2019-04-22T21:39:40.730Z,13.89
2019-04-22T21:42:14.339Z,13.86
2019-04-22T21:44:45.678Z,13.87
2019-04-22T21:47:25.628Z,13.87
2019-04-22T21:49:51.414Z,13.84
2019-04-22T21:52:24.506Z,13.84
2019-04-22T21:54:57.002Z,13.81
2019-04-22T21:57:43.797Z,13.79
2019-04-22T22:00:19.947Z,13.77
2019-04-22T22:02:47.169Z,13.76
2019-04-22T22:05:07.533Z,13.71
2019-04-22T22:07:25.633Z,13.67
2019-04-22T22:10:09.870Z,13.67
2019-04-22T22:12:42.646Z,13.62
2019-04-22T22:15:16.285Z,13.61
2019-04-22T22:17:35.380Z,13.58
2019-04-22T22:20:06.129Z,13.51
2019-04-22T22:25:14.386Z,13.46
2019-04-22T22:27:42.120Z,13.50
2019-04-22T22:30:38.806Z,13.46
2019-04-22T22:32:51.404Z,13.40
2019-04-22T22:35:20.976Z,13.40
2019-04-22T22:37:51.790Z,13.43
2019-04-22T22:40:07.421Z,13.38
2019-04-22T22:42:38.099Z,13.39
2019-04-22T22:45:16.861Z,13.35
2019-04-22T22:47:53.612Z,13.35
2019-04-22T22:50:27.470Z,13.34
2019-04-22T22:53:16.991Z,13.32
2019-04-22T22:55:35.837Z,13.31
2019-04-22T22:58:04.122Z,13.24
2019-04-22T23:00:31.296Z,13.24
2019-04-22T23:03:23.196Z,13.19
2019-04-22T23:05:37.724Z,13.22
2019-04-22T23:08:15.727Z,13.24
2019-04-22T23:10:50.756Z,13.18
2019-04-22T23:13:14.687Z,13.13
2019-04-22T23:15:39.497Z,13.11
2019-04-22T23:17:56.181Z,13.06
2019-04-22T23:20:31.013Z,13.04
2019-04-22T23:23:22.009Z,13.05
2019-04-22T23:25:54.704Z,13.04
2019-04-22T23:28:23.498Z,12.98
2019-04-22T23:31:07.507Z,12.94
2019-04-22T23:33:46.338Z,12.88
2019-04-22T23:36:13.697Z,12.89
2019-04-22T23:38:59.225Z,12.84
2019-04-22T23:41:46.288Z,12.84
2019-04-22T23:46:39.647Z,12.85
2019-04-22T23:49:10.186Z,12.78
2019-04-22T23:51:51.170Z,12.77
2019-04-22T23:54:18.672Z,12.74
2019-04-22T23:56:43.695Z,12.76
